sensor_id;sensor_type;location;lat;lon;timestamp;temperature;humidity
20492;DHT22;10404;51.468;6.762;2024-02-26T00:01:15;5.50;75.80
20492;DHT22;10404;51.468;6.762;2024-02-26T00:03:40;5.50;75.80
20492;DHT22;10404;51.468;6.762;2024-02-26T00:06:07;5.50;75.90
20492;DHT22;10404;51.468;6.762;2024-02-26T00:08:33;5.50;75.90
20492;DHT22;10404;51.468;6.762;2024-02-26T00:10:58;5.50;76.00
20492;DHT22;10404;51.468;6.762;2024-02-26T00:13:24;5.50;76.10
20492;DHT22;10404;51.468;6.762;2024-02-26T00:15:49;5.50;76.10
20492;DHT22;10404;51.468;6.762;2024-02-26T00:18:15;5.50;76.20
20492;DHT22;10404;51.468;6.762;2024-02-26T00:20:40;5.50;76.30
20492;DHT22;10404;51.468;6.762;2024-02-26T00:23:08;5.50;76.20
20492;DHT22;10404;51.468;6.762;2024-02-26T00:25:33;5.50;76.40
20492;DHT22;10404;51.468;6.762;2024-02-26T00:27:59;5.50;76.40
20492;DHT22;10404;51.468;6.762;2024-02-26T00:30:24;5.50;76.50
20492;DHT22;10404;51.468;6.762;2024-02-26T00:32:50;5.50;76.60
20492;DHT22;10404;51.468;6.762;2024-02-26T00:35:15;5.50;76.60
20492;DHT22;10404;51.468;6.762;2024-02-26T00:37:42;5.50;76.60
20492;DHT22;10404;51.468;6.762;2024-02-26T00:40:09;5.50;76.60
20492;DHT22;10404;51.468;6.762;2024-02-26T00:42:34;5.50;76.60
20492;DHT22;10404;51.468;6.762;2024-02-26T00:45:00;5.50;76.60
20492;DHT22;10404;51.468;6.762;2024-02-26T00:47:25;5.50;76.70
20492;DHT22;10404;51.468;6.762;2024-02-26T00:49:51;5.50;76.70
20492;DHT22;10404;51.468;6.762;2024-02-26T00:52:16;5.50;76.70
20492;DHT22;10404;51.468;6.762;2024-02-26T00:54:42;5.50;76.70
20492;DHT22;10404;51.468;6.762;2024-02-26T00:57:08;5.50;76.70
20492;DHT22;10404;51.468;6.762;2024-02-26T00:59:33;5.40;76.80
20492;DHT22;10404;51.468;6.762;2024-02-26T01:01:59;5.40;76.80
20492;DHT22;10404;51.468;6.762;2024-02-26T01:04:27;5.40;76.70
20492;DHT22;10404;51.468;6.762;2024-02-26T01:06:53;5.40;76.70
20492;DHT22;10404;51.468;6.762;2024-02-26T01:09:18;5.40;76.60
20492;DHT22;10404;51.468;6.762;2024-02-26T01:11:44;5.40;76.60
20492;DHT22;10404;51.468;6.762;2024-02-26T01:14:09;5.40;76.60
20492;DHT22;10404;51.468;6.762;2024-02-26T01:16:35;5.40;76.70
20492;DHT22;10404;51.468;6.762;2024-02-26T01:19:01;5.40;76.70
20492;DHT22;10404;51.468;6.762;2024-02-26T01:21:26;5.40;76.70
20492;DHT22;10404;51.468;6.762;2024-02-26T01:23:54;5.40;76.60
20492;DHT22;10404;51.468;6.762;2024-02-26T01:26:20;5.40;76.50
20492;DHT22;10404;51.468;6.762;2024-02-26T01:28:47;5.30;76.40
20492;DHT22;10404;51.468;6.762;2024-02-26T01:31:13;5.40;76.40
20492;DHT22;10404;51.468;6.762;2024-02-26T01:33:39;5.30;76.40
20492;DHT22;10404;51.468;6.762;2024-02-26T01:36:04;5.30;76.40
20492;DHT22;10404;51.468;6.762;2024-02-26T01:38:30;5.30;76.40
20492;DHT22;10404;51.468;6.762;2024-02-26T01:40:56;5.30;76.40
20492;DHT22;10404;51.468;6.762;2024-02-26T01:43:21;5.30;76.40
20492;DHT22;10404;51.468;6.762;2024-02-26T01:45:47;5.30;76.40
20492;DHT22;10404;51.468;6.762;2024-02-26T01:48:12;5.30;76.50
20492;DHT22;10404;51.468;6.762;2024-02-26T01:50:38;5.30;76.50
20492;DHT22;10404;51.468;6.762;2024-02-26T01:53:06;5.30;76.50
20492;DHT22;10404;51.468;6.762;2024-02-26T01:55:32;5.30;76.50
20492;DHT22;10404;51.468;6.762;2024-02-26T01:57:58;5.30;76.50
20492;DHT22;10404;51.468;6.762;2024-02-26T02:00:24;5.30;76.50
20492;DHT22;10404;51.468;6.762;2024-02-26T02:02:51;5.30;76.50
20492;DHT22;10404;51.468;6.762;2024-02-26T02:05:19;5.30;76.50
20492;DHT22;10404;51.468;6.762;2024-02-26T02:07:45;5.30;76.50
20492;DHT22;10404;51.468;6.762;2024-02-26T02:10:13;5.30;76.50
20492;DHT22;10404;51.468;6.762;2024-02-26T02:12:40;5.30;76.50
20492;DHT22;10404;51.468;6.762;2024-02-26T02:15:06;5.30;76.50
20492;DHT22;10404;51.468;6.762;2024-02-26T02:17:32;5.30;76.50
20492;DHT22;10404;51.468;6.762;2024-02-26T02:19:58;5.30;76.50
20492;DHT22;10404;51.468;6.762;2024-02-26T02:22:23;5.30;76.50
20492;DHT22;10404;51.468;6.762;2024-02-26T02:24:51;5.30;76.50
20492;DHT22;10404;51.468;6.762;2024-02-26T02:27:17;5.30;76.40
20492;DHT22;10404;51.468;6.762;2024-02-26T02:29:43;5.30;76.50
20492;DHT22;10404;51.468;6.762;2024-02-26T02:32:08;5.30;76.40
20492;DHT22;10404;51.468;6.762;2024-02-26T02:34:34;5.30;76.40
20492;DHT22;10404;51.468;6.762;2024-02-26T02:37:00;5.30;76.50
20492;DHT22;10404;51.468;6.762;2024-02-26T02:39:26;5.20;76.50
20492;DHT22;10404;51.468;6.762;2024-02-26T02:41:51;5.20;76.40
20492;DHT22;10404;51.468;6.762;2024-02-26T02:44:17;5.20;76.50
20492;DHT22;10404;51.468;6.762;2024-02-26T02:46:43;5.20;76.50
20492;DHT22;10404;51.468;6.762;2024-02-26T02:49:09;5.20;76.50
20492;DHT22;10404;51.468;6.762;2024-02-26T02:51:36;5.20;76.40
20492;DHT22;10404;51.468;6.762;2024-02-26T02:54:01;5.20;76.50
20492;DHT22;10404;51.468;6.762;2024-02-26T02:56:27;5.20;76.40
20492;DHT22;10404;51.468;6.762;2024-02-26T02:58:53;5.20;76.40
20492;DHT22;10404;51.468;6.762;2024-02-26T03:01:18;5.10;76.40
20492;DHT22;10404;51.468;6.762;2024-02-26T03:03:44;5.20;76.50
20492;DHT22;10404;51.468;6.762;2024-02-26T03:06:09;5.10;76.50
20492;DHT22;10404;51.468;6.762;2024-02-26T03:08:35;5.10;76.50
20492;DHT22;10404;51.468;6.762;2024-02-26T03:11:04;5.10;76.50
20492;DHT22;10404;51.468;6.762;2024-02-26T03:13:29;5.10;76.60
20492;DHT22;10404;51.468;6.762;2024-02-26T03:15:55;5.10;76.60
20492;DHT22;10404;51.468;6.762;2024-02-26T03:18:20;5.10;76.60
20492;DHT22;10404;51.468;6.762;2024-02-26T03:20:46;5.10;76.60
20492;DHT22;10404;51.468;6.762;2024-02-26T03:23:11;5.10;76.60
20492;DHT22;10404;51.468;6.762;2024-02-26T03:25:42;5.10;76.70
20492;DHT22;10404;51.468;6.762;2024-02-26T03:28:08;5.10;76.70
20492;DHT22;10404;51.468;6.762;2024-02-26T03:30:33;5.10;76.90
20492;DHT22;10404;51.468;6.762;2024-02-26T03:32:59;5.10;76.90
20492;DHT22;10404;51.468;6.762;2024-02-26T03:35:25;5.10;77.00
20492;DHT22;10404;51.468;6.762;2024-02-26T03:37:54;5.10;77.00
20492;DHT22;10404;51.468;6.762;2024-02-26T03:40:19;5.10;77.10
20492;DHT22;10404;51.468;6.762;2024-02-26T03:42:45;5.10;77.10
20492;DHT22;10404;51.468;6.762;2024-02-26T03:45:11;5.10;77.20
20492;DHT22;10404;51.468;6.762;2024-02-26T03:47:38;5.10;77.20
20492;DHT22;10404;51.468;6.762;2024-02-26T03:50:07;5.10;77.30
20492;DHT22;10404;51.468;6.762;2024-02-26T03:52:33;5.10;77.40
20492;DHT22;10404;51.468;6.762;2024-02-26T03:54:59;5.10;77.50
20492;DHT22;10404;51.468;6.762;2024-02-26T03:57:25;5.00;77.50
20492;DHT22;10404;51.468;6.762;2024-02-26T03:59:50;5.00;77.60
20492;DHT22;10404;51.468;6.762;2024-02-26T04:02:16;5.00;77.60
20492;DHT22;10404;51.468;6.762;2024-02-26T04:04:42;5.00;77.70
20492;DHT22;10404;51.468;6.762;2024-02-26T04:07:07;5.00;77.70
20492;DHT22;10404;51.468;6.762;2024-02-26T04:09:33;5.00;77.90
20492;DHT22;10404;51.468;6.762;2024-02-26T04:11:58;5.00;77.90
20492;DHT22;10404;51.468;6.762;2024-02-26T04:14:24;5.00;77.90
20492;DHT22;10404;51.468;6.762;2024-02-26T04:16:49;5.00;78.00
20492;DHT22;10404;51.468;6.762;2024-02-26T04:19:17;5.00;78.00
20492;DHT22;10404;51.468;6.762;2024-02-26T04:21:43;5.00;78.10
20492;DHT22;10404;51.468;6.762;2024-02-26T04:24:09;5.00;78.20
20492;DHT22;10404;51.468;6.762;2024-02-26T04:26:34;5.00;78.30
20492;DHT22;10404;51.468;6.762;2024-02-26T04:29:00;5.00;78.40
20492;DHT22;10404;51.468;6.762;2024-02-26T04:31:26;5.00;78.40
20492;DHT22;10404;51.468;6.762;2024-02-26T04:33:52;5.00;78.50
20492;DHT22;10404;51.468;6.762;2024-02-26T04:36:17;5.00;78.60
20492;DHT22;10404;51.468;6.762;2024-02-26T04:38:43;5.00;78.60
20492;DHT22;10404;51.468;6.762;2024-02-26T04:41:09;5.00;78.60
20492;DHT22;10404;51.468;6.762;2024-02-26T04:43:35;5.00;78.70
20492;DHT22;10404;51.468;6.762;2024-02-26T04:46:07;5.00;78.70
20492;DHT22;10404;51.468;6.762;2024-02-26T04:48:33;5.00;78.80
20492;DHT22;10404;51.468;6.762;2024-02-26T04:50:59;5.00;78.80
20492;DHT22;10404;51.468;6.762;2024-02-26T04:53:25;5.00;78.80
20492;DHT22;10404;51.468;6.762;2024-02-26T04:55:50;4.90;78.90
20492;DHT22;10404;51.468;6.762;2024-02-26T04:58:16;4.90;78.70
20492;DHT22;10404;51.468;6.762;2024-02-26T05:00:41;4.90;78.90
20492;DHT22;10404;51.468;6.762;2024-02-26T05:03:07;4.90;78.90
20492;DHT22;10404;51.468;6.762;2024-02-26T05:05:33;4.90;78.90
20492;DHT22;10404;51.468;6.762;2024-02-26T05:07:58;4.90;79.00
20492;DHT22;10404;51.468;6.762;2024-02-26T05:10:24;4.90;79.00
20492;DHT22;10404;51.468;6.762;2024-02-26T05:12:49;4.90;79.00
20492;DHT22;10404;51.468;6.762;2024-02-26T05:15:15;4.90;79.20
20492;DHT22;10404;51.468;6.762;2024-02-26T05:17:44;4.90;79.20
20492;DHT22;10404;51.468;6.762;2024-02-26T05:20:10;4.90;79.10
20492;DHT22;10404;51.468;6.762;2024-02-26T05:22:37;4.90;79.20
20492;DHT22;10404;51.468;6.762;2024-02-26T05:25:03;4.90;79.30
20492;DHT22;10404;51.468;6.762;2024-02-26T05:27:28;4.90;79.40
20492;DHT22;10404;51.468;6.762;2024-02-26T05:29:54;4.90;79.30
20492;DHT22;10404;51.468;6.762;2024-02-26T05:32:20;4.90;79.40
20492;DHT22;10404;51.468;6.762;2024-02-26T05:34:45;4.80;79.50
20492;DHT22;10404;51.468;6.762;2024-02-26T05:37:11;4.90;79.50
20492;DHT22;10404;51.468;6.762;2024-02-26T05:39:36;4.80;79.60
20492;DHT22;10404;51.468;6.762;2024-02-26T05:42:02;4.80;79.70
20492;DHT22;10404;51.468;6.762;2024-02-26T05:44:28;4.80;79.70
20492;DHT22;10404;51.468;6.762;2024-02-26T05:46:54;4.80;79.70
20492;DHT22;10404;51.468;6.762;2024-02-26T05:49:19;4.80;79.80
20492;DHT22;10404;51.468;6.762;2024-02-26T05:51:45;4.80;79.80
20492;DHT22;10404;51.468;6.762;2024-02-26T05:54:11;4.70;79.90
20492;DHT22;10404;51.468;6.762;2024-02-26T05:56:36;4.70;79.90
20492;DHT22;10404;51.468;6.762;2024-02-26T05:59:03;4.70;80.00
20492;DHT22;10404;51.468;6.762;2024-02-26T06:01:29;4.70;80.00
20492;DHT22;10404;51.468;6.762;2024-02-26T06:03:54;4.70;80.00
20492;DHT22;10404;51.468;6.762;2024-02-26T06:06:20;4.70;80.00
20492;DHT22;10404;51.468;6.762;2024-02-26T06:08:48;4.70;80.10
20492;DHT22;10404;51.468;6.762;2024-02-26T06:11:14;4.70;80.10
20492;DHT22;10404;51.468;6.762;2024-02-26T06:13:39;4.70;80.10
20492;DHT22;10404;51.468;6.762;2024-02-26T06:16:05;4.70;80.20
20492;DHT22;10404;51.468;6.762;2024-02-26T06:18:31;4.70;80.20
20492;DHT22;10404;51.468;6.762;2024-02-26T06:20:56;4.70;80.20
20492;DHT22;10404;51.468;6.762;2024-02-26T06:23:22;4.70;80.30
20492;DHT22;10404;51.468;6.762;2024-02-26T06:25:48;4.70;80.30
20492;DHT22;10404;51.468;6.762;2024-02-26T06:28:14;4.70;80.40
20492;DHT22;10404;51.468;6.762;2024-02-26T06:30:39;4.70;80.40
20492;DHT22;10404;51.468;6.762;2024-02-26T06:33:05;4.70;80.50
20492;DHT22;10404;51.468;6.762;2024-02-26T06:35:31;4.70;80.50
20492;DHT22;10404;51.468;6.762;2024-02-26T06:37:57;4.70;80.50
20492;DHT22;10404;51.468;6.762;2024-02-26T06:40:22;4.70;80.60
20492;DHT22;10404;51.468;6.762;2024-02-26T06:42:48;4.70;80.60
20492;DHT22;10404;51.468;6.762;2024-02-26T06:45:15;4.60;80.70
20492;DHT22;10404;51.468;6.762;2024-02-26T06:47:40;4.70;80.70
20492;DHT22;10404;51.468;6.762;2024-02-26T06:50:06;4.70;80.80
20492;DHT22;10404;51.468;6.762;2024-02-26T06:52:31;4.60;80.90
20492;DHT22;10404;51.468;6.762;2024-02-26T06:54:57;4.60;80.90
20492;DHT22;10404;51.468;6.762;2024-02-26T06:57:22;4.60;80.90
20492;DHT22;10404;51.468;6.762;2024-02-26T06:59:49;4.60;81.00
20492;DHT22;10404;51.468;6.762;2024-02-26T07:02:14;4.60;81.10
20492;DHT22;10404;51.468;6.762;2024-02-26T07:04:41;4.60;81.10
20492;DHT22;10404;51.468;6.762;2024-02-26T07:07:07;4.60;81.20
20492;DHT22;10404;51.468;6.762;2024-02-26T07:09:33;4.60;81.20
20492;DHT22;10404;51.468;6.762;2024-02-26T07:11:58;4.60;81.30
20492;DHT22;10404;51.468;6.762;2024-02-26T07:14:24;4.50;81.20
20492;DHT22;10404;51.468;6.762;2024-02-26T07:16:50;4.50;81.20
20492;DHT22;10404;51.468;6.762;2024-02-26T07:19:16;4.50;81.30
20492;DHT22;10404;51.468;6.762;2024-02-26T07:21:41;4.50;81.40
20492;DHT22;10404;51.468;6.762;2024-02-26T07:24:07;4.50;81.40
20492;DHT22;10404;51.468;6.762;2024-02-26T07:26:32;4.50;81.40
20492;DHT22;10404;51.468;6.762;2024-02-26T07:28:58;4.50;81.40
20492;DHT22;10404;51.468;6.762;2024-02-26T07:31:25;4.50;81.40
20492;DHT22;10404;51.468;6.762;2024-02-26T07:33:51;4.50;81.60
20492;DHT22;10404;51.468;6.762;2024-02-26T07:36:16;4.50;81.50
20492;DHT22;10404;51.468;6.762;2024-02-26T07:38:42;4.50;81.50
20492;DHT22;10404;51.468;6.762;2024-02-26T07:41:08;4.50;81.60
20492;DHT22;10404;51.468;6.762;2024-02-26T07:43:34;4.50;81.60
20492;DHT22;10404;51.468;6.762;2024-02-26T07:45:59;4.50;81.60
20492;DHT22;10404;51.468;6.762;2024-02-26T07:48:25;4.50;81.70
20492;DHT22;10404;51.468;6.762;2024-02-26T07:50:50;4.50;81.70
20492;DHT22;10404;51.468;6.762;2024-02-26T07:53:16;4.50;81.80
20492;DHT22;10404;51.468;6.762;2024-02-26T07:55:41;4.50;81.70
20492;DHT22;10404;51.468;6.762;2024-02-26T07:58:07;4.50;81.80
20492;DHT22;10404;51.468;6.762;2024-02-26T08:00:33;4.50;81.90
20492;DHT22;10404;51.468;6.762;2024-02-26T08:02:58;4.50;81.80
20492;DHT22;10404;51.468;6.762;2024-02-26T08:05:24;4.60;81.90
20492;DHT22;10404;51.468;6.762;2024-02-26T08:07:50;4.50;81.90
20492;DHT22;10404;51.468;6.762;2024-02-26T08:10:16;4.50;81.90
20492;DHT22;10404;51.468;6.762;2024-02-26T08:12:41;4.50;81.90
20492;DHT22;10404;51.468;6.762;2024-02-26T08:15:08;4.50;82.00
20492;DHT22;10404;51.468;6.762;2024-02-26T08:17:33;4.50;82.00
20492;DHT22;10404;51.468;6.762;2024-02-26T08:20:00;4.60;82.10
20492;DHT22;10404;51.468;6.762;2024-02-26T08:22:26;4.50;82.30
20492;DHT22;10404;51.468;6.762;2024-02-26T08:24:51;4.50;82.10
20492;DHT22;10404;51.468;6.762;2024-02-26T08:27:17;4.50;82.20
20492;DHT22;10404;51.468;6.762;2024-02-26T08:29:43;4.50;82.20
20492;DHT22;10404;51.468;6.762;2024-02-26T08:32:08;4.50;82.20
20492;DHT22;10404;51.468;6.762;2024-02-26T08:34:34;4.50;82.30
20492;DHT22;10404;51.468;6.762;2024-02-26T08:37:00;4.60;82.40
20492;DHT22;10404;51.468;6.762;2024-02-26T08:39:25;4.50;82.30
20492;DHT22;10404;51.468;6.762;2024-02-26T08:41:51;4.60;82.40
20492;DHT22;10404;51.468;6.762;2024-02-26T08:44:17;4.60;82.50
20492;DHT22;10404;51.468;6.762;2024-02-26T08:46:43;4.60;82.40
20492;DHT22;10404;51.468;6.762;2024-02-26T08:49:08;4.60;82.40
20492;DHT22;10404;51.468;6.762;2024-02-26T08:51:34;4.50;82.40
20492;DHT22;10404;51.468;6.762;2024-02-26T08:53:59;4.60;82.30
20492;DHT22;10404;51.468;6.762;2024-02-26T08:56:25;4.60;82.30
20492;DHT22;10404;51.468;6.762;2024-02-26T08:58:50;4.60;82.40
20492;DHT22;10404;51.468;6.762;2024-02-26T09:01:19;4.60;82.50
20492;DHT22;10404;51.468;6.762;2024-02-26T09:03:44;4.60;82.70
20492;DHT22;10404;51.468;6.762;2024-02-26T09:06:10;4.60;82.60
20492;DHT22;10404;51.468;6.762;2024-02-26T09:08:37;4.60;82.60
20492;DHT22;10404;51.468;6.762;2024-02-26T09:11:03;4.60;82.70
20492;DHT22;10404;51.468;6.762;2024-02-26T09:13:29;4.60;82.60
20492;DHT22;10404;51.468;6.762;2024-02-26T09:15:54;4.60;82.60
20492;DHT22;10404;51.468;6.762;2024-02-26T09:18:20;4.60;82.80
20492;DHT22;10404;51.468;6.762;2024-02-26T09:20:46;4.70;82.70
20492;DHT22;10404;51.468;6.762;2024-02-26T09:23:11;4.70;82.70
20492;DHT22;10404;51.468;6.762;2024-02-26T09:25:37;4.70;82.80
20492;DHT22;10404;51.468;6.762;2024-02-26T09:28:02;4.70;82.90
20492;DHT22;10404;51.468;6.762;2024-02-26T09:30:29;4.70;82.80
20492;DHT22;10404;51.468;6.762;2024-02-26T09:32:54;4.70;82.80
20492;DHT22;10404;51.468;6.762;2024-02-26T09:35:20;4.70;82.90
20492;DHT22;10404;51.468;6.762;2024-02-26T09:37:46;4.70;83.00
20492;DHT22;10404;51.468;6.762;2024-02-26T09:40:14;4.70;82.90
20492;DHT22;10404;51.468;6.762;2024-02-26T09:42:44;4.70;83.00
20492;DHT22;10404;51.468;6.762;2024-02-26T09:45:12;4.70;83.00
20492;DHT22;10404;51.468;6.762;2024-02-26T09:47:42;4.70;82.90
20492;DHT22;10404;51.468;6.762;2024-02-26T09:50:09;4.70;83.00
20492;DHT22;10404;51.468;6.762;2024-02-26T09:52:37;4.70;82.90
20492;DHT22;10404;51.468;6.762;2024-02-26T09:55:04;4.70;82.90
20492;DHT22;10404;51.468;6.762;2024-02-26T09:57:30;4.70;82.90
20492;DHT22;10404;51.468;6.762;2024-02-26T09:59:59;4.70;83.00
20492;DHT22;10404;51.468;6.762;2024-02-26T10:02:29;4.70;83.00
20492;DHT22;10404;51.468;6.762;2024-02-26T10:04:57;4.70;82.80
20492;DHT22;10404;51.468;6.762;2024-02-26T10:07:26;4.70;82.80
20492;DHT22;10404;51.468;6.762;2024-02-26T10:09:55;4.70;82.80
20492;DHT22;10404;51.468;6.762;2024-02-26T10:12:21;4.70;82.90
20492;DHT22;10404;51.468;6.762;2024-02-26T10:14:47;4.70;82.80
20492;DHT22;10404;51.468;6.762;2024-02-26T10:17:13;4.70;82.80
20492;DHT22;10404;51.468;6.762;2024-02-26T10:19:38;4.70;82.70
20492;DHT22;10404;51.468;6.762;2024-02-26T10:22:04;4.70;83.00
20492;DHT22;10404;51.468;6.762;2024-02-26T10:24:30;4.70;83.00
20492;DHT22;10404;51.468;6.762;2024-02-26T10:26:56;4.70;82.80
20492;DHT22;10404;51.468;6.762;2024-02-26T10:29:24;4.70;82.70
20492;DHT22;10404;51.468;6.762;2024-02-26T10:31:53;4.70;82.90
20492;DHT22;10404;51.468;6.762;2024-02-26T10:34:20;4.70;82.90
20492;DHT22;10404;51.468;6.762;2024-02-26T10:36:46;4.70;82.90
20492;DHT22;10404;51.468;6.762;2024-02-26T10:39:12;4.70;82.90
20492;DHT22;10404;51.468;6.762;2024-02-26T10:41:43;4.70;82.90
20492;DHT22;10404;51.468;6.762;2024-02-26T10:44:10;4.70;82.80
20492;DHT22;10404;51.468;6.762;2024-02-26T10:46:37;4.70;82.80
20492;DHT22;10404;51.468;6.762;2024-02-26T10:49:04;4.70;83.00
20492;DHT22;10404;51.468;6.762;2024-02-26T10:51:31;4.70;83.10
20492;DHT22;10404;51.468;6.762;2024-02-26T10:53:59;4.70;82.90
20492;DHT22;10404;51.468;6.762;2024-02-26T10:56:30;4.70;83.10
20492;DHT22;10404;51.468;6.762;2024-02-26T10:58:58;4.80;83.10
20492;DHT22;10404;51.468;6.762;2024-02-26T11:01:25;4.70;82.90
20492;DHT22;10404;51.468;6.762;2024-02-26T11:03:52;4.80;82.80
20492;DHT22;10404;51.468;6.762;2024-02-26T11:06:27;4.80;82.80
20492;DHT22;10404;51.468;6.762;2024-02-26T11:08:53;4.80;82.80
20492;DHT22;10404;51.468;6.762;2024-02-26T11:11:22;4.80;82.60
20492;DHT22;10404;51.468;6.762;2024-02-26T11:13:49;4.80;83.10
20492;DHT22;10404;51.468;6.762;2024-02-26T11:16:21;4.80;84.10
20492;DHT22;10404;51.468;6.762;2024-02-26T11:18:47;4.90;83.10
20492;DHT22;10404;51.468;6.762;2024-02-26T11:21:15;4.90;83.80
20492;DHT22;10404;51.468;6.762;2024-02-26T11:23:42;4.90;84.00
20492;DHT22;10404;51.468;6.762;2024-02-26T11:26:09;4.90;84.00
20492;DHT22;10404;51.468;6.762;2024-02-26T11:28:35;4.90;84.40
20492;DHT22;10404;51.468;6.762;2024-02-26T11:31:02;4.90;84.00
20492;DHT22;10404;51.468;6.762;2024-02-26T11:33:30;5.00;83.90
20492;DHT22;10404;51.468;6.762;2024-02-26T11:35:56;5.00;83.70
20492;DHT22;10404;51.468;6.762;2024-02-26T11:38:23;5.00;83.90
20492;DHT22;10404;51.468;6.762;2024-02-26T11:40:50;5.00;83.90
20492;DHT22;10404;51.468;6.762;2024-02-26T11:43:16;5.00;83.90
20492;DHT22;10404;51.468;6.762;2024-02-26T11:48:23;5.00;84.10
20492;DHT22;10404;51.468;6.762;2024-02-26T11:50:51;5.00;83.80
20492;DHT22;10404;51.468;6.762;2024-02-26T11:53:29;5.00;83.40
20492;DHT22;10404;51.468;6.762;2024-02-26T11:58:45;5.10;84.30
20492;DHT22;10404;51.468;6.762;2024-02-26T12:01:42;5.10;84.40
20492;DHT22;10404;51.468;6.762;2024-02-26T12:06:46;5.20;84.30
20492;DHT22;10404;51.468;6.762;2024-02-26T12:09:11;5.20;84.40
20492;DHT22;10404;51.468;6.762;2024-02-26T12:11:39;5.30;84.60
20492;DHT22;10404;51.468;6.762;2024-02-26T12:14:07;5.30;84.70
20492;DHT22;10404;51.468;6.762;2024-02-26T12:16:39;5.30;84.90
20492;DHT22;10404;51.468;6.762;2024-02-26T12:19:06;5.30;84.80
20492;DHT22;10404;51.468;6.762;2024-02-26T12:21:36;5.30;84.80
20492;DHT22;10404;51.468;6.762;2024-02-26T12:24:13;5.30;84.70
20492;DHT22;10404;51.468;6.762;2024-02-26T12:26:39;5.30;84.70
20492;DHT22;10404;51.468;6.762;2024-02-26T12:29:05;5.40;84.70
20492;DHT22;10404;51.468;6.762;2024-02-26T12:31:32;5.40;84.70
20492;DHT22;10404;51.468;6.762;2024-02-26T12:33:58;5.50;84.80
20492;DHT22;10404;51.468;6.762;2024-02-26T12:36:24;5.50;84.80
20492;DHT22;10404;51.468;6.762;2024-02-26T12:38:53;5.50;84.70
20492;DHT22;10404;51.468;6.762;2024-02-26T12:41:19;5.50;84.60
20492;DHT22;10404;51.468;6.762;2024-02-26T12:43:45;5.50;84.40
20492;DHT22;10404;51.468;6.762;2024-02-26T12:46:11;5.50;84.30
20492;DHT22;10404;51.468;6.762;2024-02-26T12:48:38;5.50;84.30
20492;DHT22;10404;51.468;6.762;2024-02-26T12:51:04;5.60;84.10
20492;DHT22;10404;51.468;6.762;2024-02-26T12:53:31;5.60;84.00
20492;DHT22;10404;51.468;6.762;2024-02-26T12:55:57;5.60;83.90
20492;DHT22;10404;51.468;6.762;2024-02-26T12:58:23;5.60;83.90
20492;DHT22;10404;51.468;6.762;2024-02-26T13:00:51;5.60;83.90
20492;DHT22;10404;51.468;6.762;2024-02-26T13:03:17;5.60;83.70
20492;DHT22;10404;51.468;6.762;2024-02-26T13:05:43;5.70;83.70
20492;DHT22;10404;51.468;6.762;2024-02-26T13:08:17;5.70;83.60
20492;DHT22;10404;51.468;6.762;2024-02-26T13:10:43;5.70;83.50
20492;DHT22;10404;51.468;6.762;2024-02-26T13:13:08;5.70;83.50
20492;DHT22;10404;51.468;6.762;2024-02-26T13:15:34;5.70;83.30
20492;DHT22;10404;51.468;6.762;2024-02-26T13:18:12;5.70;83.30
20492;DHT22;10404;51.468;6.762;2024-02-26T13:20:38;5.70;83.30
20492;DHT22;10404;51.468;6.762;2024-02-26T13:23:10;5.80;82.90
20492;DHT22;10404;51.468;6.762;2024-02-26T13:25:36;5.80;82.80
20492;DHT22;10404;51.468;6.762;2024-02-26T13:28:19;5.80;82.70
20492;DHT22;10404;51.468;6.762;2024-02-26T13:30:52;5.80;82.50
20492;DHT22;10404;51.468;6.762;2024-02-26T13:33:19;5.80;82.30
20492;DHT22;10404;51.468;6.762;2024-02-26T13:35:44;5.80;82.30
20492;DHT22;10404;51.468;6.762;2024-02-26T13:38:10;5.80;82.40
20492;DHT22;10404;51.468;6.762;2024-02-26T13:40:37;5.90;82.30
20492;DHT22;10404;51.468;6.762;2024-02-26T13:43:04;5.90;82.30
20492;DHT22;10404;51.468;6.762;2024-02-26T13:45:30;5.90;82.10
20492;DHT22;10404;51.468;6.762;2024-02-26T13:48:02;5.90;82.00
20492;DHT22;10404;51.468;6.762;2024-02-26T13:50:28;5.90;81.90
20492;DHT22;10404;51.468;6.762;2024-02-26T13:52:54;5.90;81.80
20492;DHT22;10404;51.468;6.762;2024-02-26T13:55:21;5.90;81.60
20492;DHT22;10404;51.468;6.762;2024-02-26T13:57:48;5.90;81.60
20492;DHT22;10404;51.468;6.762;2024-02-26T14:00:17;5.90;81.50
20492;DHT22;10404;51.468;6.762;2024-02-26T14:02:43;5.90;81.40
20492;DHT22;10404;51.468;6.762;2024-02-26T14:05:08;5.90;81.40
20492;DHT22;10404;51.468;6.762;2024-02-26T14:07:34;6.00;81.40
20492;DHT22;10404;51.468;6.762;2024-02-26T14:10:00;6.00;81.50
20492;DHT22;10404;51.468;6.762;2024-02-26T14:12:25;6.00;81.40
20492;DHT22;10404;51.468;6.762;2024-02-26T14:14:51;6.00;81.10
20492;DHT22;10404;51.468;6.762;2024-02-26T14:17:19;6.00;81.00
20492;DHT22;10404;51.468;6.762;2024-02-26T14:19:44;6.00;81.10
20492;DHT22;10404;51.468;6.762;2024-02-26T14:22:14;6.00;81.10
20492;DHT22;10404;51.468;6.762;2024-02-26T14:24:40;6.00;81.30
20492;DHT22;10404;51.468;6.762;2024-02-26T14:27:07;6.00;81.30
20492;DHT22;10404;51.468;6.762;2024-02-26T14:29:33;6.00;81.10
20492;DHT22;10404;51.468;6.762;2024-02-26T14:31:58;6.00;81.10
20492;DHT22;10404;51.468;6.762;2024-02-26T14:34:24;6.00;81.20
20492;DHT22;10404;51.468;6.762;2024-02-26T14:36:49;6.00;81.10
20492;DHT22;10404;51.468;6.762;2024-02-26T14:39:15;6.00;81.10
20492;DHT22;10404;51.468;6.762;2024-02-26T14:41:41;6.00;81.20
20492;DHT22;10404;51.468;6.762;2024-02-26T14:44:06;6.00;81.20
20492;DHT22;10404;51.468;6.762;2024-02-26T14:46:32;6.00;81.20
20492;DHT22;10404;51.468;6.762;2024-02-26T14:48:57;6.00;81.20
20492;DHT22;10404;51.468;6.762;2024-02-26T14:51:23;6.00;81.10
20492;DHT22;10404;51.468;6.762;2024-02-26T14:53:49;6.00;81.20
20492;DHT22;10404;51.468;6.762;2024-02-26T14:56:14;6.00;81.20
20492;DHT22;10404;51.468;6.762;2024-02-26T14:58:40;6.00;81.10
20492;DHT22;10404;51.468;6.762;2024-02-26T15:01:05;6.00;81.10
20492;DHT22;10404;51.468;6.762;2024-02-26T15:03:32;6.00;81.10
20492;DHT22;10404;51.468;6.762;2024-02-26T15:05:58;6.00;81.00
20492;DHT22;10404;51.468;6.762;2024-02-26T15:08:23;6.00;81.00
20492;DHT22;10404;51.468;6.762;2024-02-26T15:10:49;6.00;81.00
20492;DHT22;10404;51.468;6.762;2024-02-26T15:13:15;6.00;80.90
20492;DHT22;10404;51.468;6.762;2024-02-26T15:15:44;6.00;80.90
20492;DHT22;10404;51.468;6.762;2024-02-26T15:18:09;6.00;81.00
20492;DHT22;10404;51.468;6.762;2024-02-26T15:20:37;6.00;80.90
20492;DHT22;10404;51.468;6.762;2024-02-26T15:23:04;6.00;80.80
20492;DHT22;10404;51.468;6.762;2024-02-26T15:25:31;6.00;80.70
20492;DHT22;10404;51.468;6.762;2024-02-26T15:27:57;6.00;80.80
20492;DHT22;10404;51.468;6.762;2024-02-26T15:30:22;6.00;80.70
20492;DHT22;10404;51.468;6.762;2024-02-26T15:32:48;6.00;80.80
20492;DHT22;10404;51.468;6.762;2024-02-26T15:35:14;6.00;80.70
20492;DHT22;10404;51.468;6.762;2024-02-26T15:37:39;6.00;80.70
20492;DHT22;10404;51.468;6.762;2024-02-26T15:40:05;6.00;80.70
20492;DHT22;10404;51.468;6.762;2024-02-26T15:42:32;6.00;80.80
20492;DHT22;10404;51.468;6.762;2024-02-26T15:44:58;6.00;80.80
20492;DHT22;10404;51.468;6.762;2024-02-26T15:47:23;6.00;80.70